createdAt,value
2024-02-02T00:00:47.151Z,97500.00
2024-02-02T00:03:14.056Z,97495.00
2024-02-02T00:05:40.849Z,97484.09
2024-02-02T00:08:07.901Z,97482.50
2024-02-02T00:10:34.751Z,97489.00
2024-02-02T00:13:01.418Z,97489.44
2024-02-02T00:15:28.163Z,97491.31
2024-02-02T00:17:55.032Z,97479.47
2024-02-02T00:20:21.852Z,97485.63
2024-02-02T00:22:48.618Z,97482.03
2024-02-02T00:25:15.366Z,97476.91
2024-02-02T00:27:42.007Z,97484.72
2024-02-02T00:30:09.267Z,97487.81
2024-02-02T00:32:35.965Z,97505.00
2024-02-02T00:35:03.064Z,97504.63
2024-02-02T00:37:29.854Z,97508.25
2024-02-02T00:39:56.521Z,97511.34
2024-02-02T00:42:23.226Z,97507.78
2024-02-02T00:44:49.946Z,97515.88
2024-02-02T00:47:16.653Z,97507.19
2024-02-02T00:49:43.496Z,97517.75
2024-02-02T00:52:10.347Z,97505.22
2024-02-02T00:54:37.093Z,97509.06
2024-02-02T00:57:04.173Z,97510.31
2024-02-02T00:59:30.876Z,97500.69
2024-02-02T01:01:57.640Z,97506.84
2024-02-02T01:04:24.326Z,97516.09
2024-02-02T01:06:51.157Z,97506.34
2024-02-02T01:09:18.001Z,97509.59
2024-02-02T01:11:44.844Z,97514.13
2024-02-02T01:14:11.719Z,97514.25
2024-02-02T01:16:38.416Z,97522.81
2024-02-02T01:19:05.473Z,97525.97
2024-02-02T01:21:32.315Z,97524.00
2024-02-02T01:24:00.280Z,97515.03
2024-02-02T01:26:26.973Z,97518.41
2024-02-02T01:28:53.628Z,97514.13
2024-02-02T01:31:20.272Z,97514.00
2024-02-02T01:33:47.080Z,97509.84
2024-02-02T01:36:13.845Z,97507.06
2024-02-02T01:38:40.602Z,97501.84
2024-02-02T01:41:07.246Z,97503.69
2024-02-02T01:43:33.920Z,97495.47
2024-02-02T01:46:00.585Z,97490.34
2024-02-02T01:48:27.796Z,97491.41
2024-02-02T01:50:54.889Z,97501.63
2024-02-02T01:53:21.926Z,97497.97
2024-02-02T01:55:48.631Z,97503.88
2024-02-02T01:58:15.502Z,97506.81
2024-02-02T02:00:42.619Z,97503.34
2024-02-02T02:03:09.475Z,97495.03
2024-02-02T02:05:37.279Z,97507.88
2024-02-02T02:08:04.158Z,97504.84
2024-02-02T02:10:31.046Z,97500.69
2024-02-02T02:12:58.293Z,97501.03
2024-02-02T02:15:25.496Z,97492.00
2024-02-02T02:17:55.171Z,97496.88
2024-02-02T02:20:23.669Z,97498.50
2024-02-02T02:22:50.464Z,97501.03
2024-02-02T02:25:17.224Z,97493.38
2024-02-02T02:27:44.255Z,97493.50
2024-02-02T02:30:11.579Z,97493.28
2024-02-02T02:32:38.179Z,97481.34
2024-02-02T02:35:05.243Z,97480.75
2024-02-02T02:37:31.961Z,97483.28
2024-02-02T02:39:59.167Z,97495.03
2024-02-02T02:42:25.946Z,97494.19
2024-02-02T02:44:52.712Z,97495.03
2024-02-02T02:47:20.041Z,97482.25
2024-02-02T02:49:46.626Z,97477.50
2024-02-02T02:52:13.296Z,97474.84
2024-02-02T02:54:40.043Z,97473.34
2024-02-02T02:57:06.710Z,97468.38
2024-02-02T02:59:33.697Z,97466.63
2024-02-02T03:02:00.424Z,97470.56
2024-02-02T03:04:27.326Z,97481.66
2024-02-02T03:06:54.103Z,97481.44
2024-02-02T03:09:20.899Z,97474.25
2024-02-02T03:11:47.654Z,97484.69
2024-02-02T03:14:14.977Z,97489.31
2024-02-02T03:16:41.661Z,97492.00
2024-02-02T03:19:08.457Z,97491.28
2024-02-02T03:21:36.351Z,97495.88
2024-02-02T03:24:03.501Z,97498.25
2024-02-02T03:26:30.292Z,97506.69
2024-02-02T03:28:58.181Z,97506.81
2024-02-02T03:31:24.905Z,97512.13
2024-02-02T03:33:51.780Z,97505.16
2024-02-02T03:36:18.582Z,97504.13
2024-02-02T03:38:45.249Z,97501.13
2024-02-02T03:41:11.888Z,97505.16
2024-02-02T03:43:38.542Z,97502.38
2024-02-02T03:46:05.431Z,97497.75
2024-02-02T03:48:32.205Z,97488.34
2024-02-02T03:50:58.953Z,97485.09
2024-02-02T03:53:25.630Z,97486.47
2024-02-02T03:55:52.272Z,97481.38
2024-02-02T03:58:18.924Z,97490.31
2024-02-02T04:00:46.601Z,97477.94
2024-02-02T04:03:13.476Z,97486.41
2024-02-02T04:05:41.057Z,97495.44
2024-02-02T04:08:08.334Z,97494.28
2024-02-02T04:10:35.064Z,97494.41
2024-02-02T04:13:03.454Z,97499.84
2024-02-02T04:15:33.122Z,97492.66
2024-02-02T04:18:00.619Z,97496.94
2024-02-02T04:20:27.524Z,97503.75
2024-02-02T04:22:54.237Z,97507.84
2024-02-02T04:25:20.909Z,97515.47
2024-02-02T04:27:47.615Z,97519.28
2024-02-02T04:30:14.660Z,97524.22
2024-02-02T04:32:42.354Z,97523.78
2024-02-02T04:35:09.124Z,97524.22
2024-02-02T04:37:35.794Z,97526.66
2024-02-02T04:40:02.576Z,97530.97
2024-02-02T04:42:29.347Z,97548.31
2024-02-02T04:44:56.237Z,97555.78
2024-02-02T04:47:23.765Z,97553.72
2024-02-02T04:49:50.675Z,97542.53
2024-02-02T04:52:17.407Z,97549.38
2024-02-02T04:54:44.142Z,97543.16
2024-02-02T04:57:10.813Z,97542.69
2024-02-02T04:59:38.526Z,97546.03
2024-02-02T05:02:06.617Z,97550.16
2024-02-02T05:04:34.002Z,97543.78
2024-02-02T05:07:00.809Z,97536.53
2024-02-02T05:09:27.568Z,97531.53
2024-02-02T05:11:54.251Z,97541.41
2024-02-02T05:14:20.916Z,97545.66
2024-02-02T05:16:47.648Z,97546.47
2024-02-02T05:19:14.448Z,97556.47
2024-02-02T05:21:41.212Z,97562.78
2024-02-02T05:24:20.498Z,97565.34
2024-02-02T05:26:54.672Z,97570.16
2024-02-02T05:29:21.338Z,97565.09
2024-02-02T05:31:47.974Z,97553.69
2024-02-02T05:34:14.969Z,97574.38
2024-02-02T05:36:41.695Z,97569.78
2024-02-02T05:39:10.099Z,97567.47
2024-02-02T05:41:36.792Z,97577.53
2024-02-02T05:44:03.615Z,97575.31
2024-02-02T05:46:30.293Z,97570.94
2024-02-02T05:48:57.371Z,97567.69
2024-02-02T05:51:24.187Z,97561.09
2024-02-02T05:53:50.907Z,97562.47
2024-02-02T05:56:17.579Z,97568.53
2024-02-02T05:58:44.229Z,97564.53
2024-02-02T06:01:10.941Z,97564.00
2024-02-02T06:03:37.795Z,97570.41
2024-02-02T06:06:04.761Z,97578.72
2024-02-02T06:08:31.475Z,97579.84
2024-02-02T06:10:58.124Z,97573.88
2024-02-02T06:13:24.789Z,97577.28
2024-02-02T06:15:51.428Z,97577.13
2024-02-02T06:18:20.790Z,97584.69
2024-02-02T06:20:47.690Z,97588.38
2024-02-02T06:23:14.432Z,97590.81
2024-02-02T06:25:41.553Z,97592.81
2024-02-02T06:28:09.485Z,97595.91
2024-02-02T06:30:36.284Z,97584.78
2024-02-02T06:33:03.113Z,97586.84
2024-02-02T06:35:31.394Z,97589.50
2024-02-02T06:37:59.074Z,97591.28
2024-02-02T06:40:25.849Z,97596.44
2024-02-02T06:42:52.561Z,97593.66
2024-02-02T06:45:19.326Z,97592.63
2024-02-02T06:47:46.053Z,97605.81
2024-02-02T06:50:12.715Z,97609.94
2024-02-02T06:52:39.355Z,97603.75
2024-02-02T06:55:06.310Z,97599.28
2024-02-02T06:57:33.474Z,97600.38
2024-02-02T07:00:01.556Z,97605.53
2024-02-02T07:02:34.170Z,97608.66
2024-02-02T07:05:01.853Z,97599.22
2024-02-02T07:07:28.824Z,97602.22
2024-02-02T07:09:59.100Z,97604.91
2024-02-02T07:12:34.866Z,97611.56
2024-02-02T07:15:05.742Z,97609.47
2024-02-02T07:17:38.726Z,97611.28
2024-02-02T07:20:11.200Z,97605.72
2024-02-02T07:22:44.017Z,97601.34
2024-02-02T07:25:18.637Z,97600.72
2024-02-02T07:27:52.667Z,97605.97
2024-02-02T07:30:45.364Z,97602.41
2024-02-02T07:33:25.676Z,97603.78
2024-02-02T07:35:54.742Z,97617.81
2024-02-02T07:38:43.260Z,97611.84
2024-02-02T07:41:11.987Z,97607.72
2024-02-02T07:43:38.697Z,97621.59
2024-02-02T07:46:10.521Z,97610.63
2024-02-02T07:48:40.195Z,97601.84
2024-02-02T07:51:08.347Z,97597.78
2024-02-02T07:53:35.696Z,97598.38
2024-02-02T07:56:02.528Z,97598.44
2024-02-02T07:58:29.333Z,97590.38
2024-02-02T08:00:56.108Z,97591.53
2024-02-02T08:03:23.143Z,97590.03
2024-02-02T08:05:49.893Z,97585.38
2024-02-02T08:08:16.610Z,97581.56
2024-02-02T08:10:44.248Z,97579.47
2024-02-02T08:13:15.436Z,97572.50
2024-02-02T08:15:42.414Z,97574.94
2024-02-02T08:18:10.341Z,97585.38
2024-02-02T08:20:37.555Z,97584.78
2024-02-02T08:23:05.791Z,97588.75
2024-02-02T08:25:32.587Z,97579.56
2024-02-02T08:27:59.505Z,97575.59
2024-02-02T08:30:26.294Z,97580.47
2024-02-02T08:32:53.306Z,97596.94
2024-02-02T08:35:24.362Z,97589.88
2024-02-02T08:37:58.978Z,97583.81
2024-02-02T08:40:41.010Z,97579.16
2024-02-02T08:43:18.924Z,97574.50
2024-02-02T08:45:57.598Z,97580.44
2024-02-02T08:48:33.996Z,97580.91
2024-02-02T08:51:01.993Z,97594.84
2024-02-02T08:53:30.890Z,97607.53
2024-02-02T08:56:02.352Z,97611.94
2024-02-02T08:58:36.237Z,97614.16
2024-02-02T09:01:07.124Z,97609.63
2024-02-02T09:03:45.828Z,97616.00
2024-02-02T09:06:45.873Z,97619.25
2024-02-02T09:09:16.040Z,97625.50
2024-02-02T09:11:48.766Z,97628.19
2024-02-02T09:14:19.131Z,97626.34
2024-02-02T09:16:49.241Z,97616.13
2024-02-02T09:19:32.195Z,97623.88
2024-02-02T09:22:02.578Z,97616.47
2024-02-02T09:24:29.391Z,97617.38
2024-02-02T09:26:58.990Z,97615.41
2024-02-02T09:29:25.975Z,97615.69
2024-02-02T09:31:52.609Z,97621.06
2024-02-02T09:34:28.834Z,97621.34
2024-02-02T09:36:55.695Z,97624.69
2024-02-02T09:39:55.403Z,97627.84
2024-02-02T09:42:51.299Z,97628.66
2024-02-02T09:45:32.184Z,97631.91
2024-02-02T09:48:07.092Z,97623.47
2024-02-02T09:50:51.730Z,97631.44
2024-02-02T09:53:40.252Z,97635.56
2024-02-02T09:56:43.259Z,97626.44
2024-02-02T09:59:18.951Z,97629.25
2024-02-02T10:01:58.056Z,97629.84
2024-02-02T10:04:36.730Z,97618.97
2024-02-02T10:07:03.663Z,97620.69
2024-02-02T10:09:48.920Z,97628.63
2024-02-02T10:12:41.826Z,97627.63
2024-02-02T10:15:23.842Z,97621.47
2024-02-02T10:18:11.541Z,97604.22
2024-02-02T10:21:12.362Z,97607.13
2024-02-02T10:23:49.581Z,97607.75
2024-02-02T10:26:41.247Z,97609.88
2024-02-02T10:29:07.847Z,97601.03
2024-02-02T10:31:58.465Z,97592.41
2024-02-02T10:34:54.869Z,97592.84
2024-02-02T10:37:38.718Z,97591.56
2024-02-02T10:40:22.586Z,97587.91
2024-02-02T10:43:04.550Z,97583.91
2024-02-02T10:45:41.590Z,97586.50
2024-02-02T10:48:32.384Z,97595.09
2024-02-02T10:51:43.588Z,97583.44
2024-02-02T10:54:34.576Z,97593.50
2024-02-02T10:57:19.774Z,97586.53
2024-02-02T11:00:08.495Z,97582.63
2024-02-02T11:03:05.470Z,97575.50
2024-02-02T11:05:39.660Z,97577.59
2024-02-02T11:08:12.718Z,97570.28
2024-02-02T11:11:02.513Z,97575.59
2024-02-02T11:13:51.168Z,97576.63
2024-02-02T11:16:36.341Z,97556.13
2024-02-02T11:19:34.947Z,97558.31
2024-02-02T11:22:24.192Z,97558.13
2024-02-02T11:25:10.797Z,97560.06
2024-02-02T11:27:51.121Z,97563.00
2024-02-02T11:30:47.942Z,97558.88
2024-02-02T11:33:28.359Z,97556.34
2024-02-02T11:36:13.182Z,97549.97
2024-02-02T11:39:08.757Z,97544.78
2024-02-02T11:41:39.148Z,97531.22
2024-02-02T11:44:06.500Z,97531.72
2024-02-02T11:46:34.341Z,97517.44
2024-02-02T11:49:10.199Z,97515.44
2024-02-02T11:51:38.798Z,97520.91
2024-02-02T11:54:28.073Z,97515.97
2024-02-02T11:56:56.683Z,97513.06
2024-02-02T11:59:42.044Z,97507.25
2024-02-02T12:02:17.773Z,97510.56
2024-02-02T12:04:53.466Z,97511.69
2024-02-02T12:07:29.323Z,97516.22
2024-02-02T12:10:02.150Z,97507.19
2024-02-02T12:12:37.555Z,97501.28
2024-02-02T12:15:05.875Z,97492.34
2024-02-02T12:17:32.584Z,97483.78
2024-02-02T12:19:59.625Z,97483.56
2024-02-02T12:22:27.228Z,97490.31
2024-02-02T12:24:54.012Z,97489.66
2024-02-02T12:27:20.712Z,97490.69
2024-02-02T12:29:47.920Z,97497.19
2024-02-02T12:32:14.669Z,97489.84
2024-02-02T12:34:41.632Z,97487.50
2024-02-02T12:37:08.774Z,97499.47
2024-02-02T12:39:38.670Z,97488.56
2024-02-02T12:42:07.269Z,97492.66
2024-02-02T12:44:34.243Z,97496.22
2024-02-02T12:47:01.310Z,97484.66
2024-02-02T12:49:28.692Z,97473.84
2024-02-02T12:51:57.678Z,97485.34
2024-02-02T12:54:24.696Z,97500.44
2024-02-02T12:56:52.021Z,97498.63
2024-02-02T12:59:19.841Z,97487.06
2024-02-02T13:01:49.313Z,97470.16
2024-02-02T13:04:18.107Z,97484.41
2024-02-02T13:06:46.535Z,97482.59
2024-02-02T13:09:19.534Z,97489.69
2024-02-02T13:11:49.885Z,97486.28
2024-02-02T13:14:37.848Z,97508.75
2024-02-02T13:17:13.835Z,97507.97
2024-02-02T13:19:47.033Z,97504.75
2024-02-02T13:22:28.074Z,97514.34
2024-02-02T13:24:58.251Z,97524.59
2024-02-02T13:27:33.632Z,97510.56
2024-02-02T13:30:03.488Z,97503.81
2024-02-02T13:32:34.817Z,97511.03
2024-02-02T13:35:02.056Z,97501.13
2024-02-02T13:37:37.924Z,97504.38
2024-02-02T13:40:10.729Z,97490.78
2024-02-02T13:42:38.129Z,97507.50
2024-02-02T13:45:13.159Z,97494.88
2024-02-02T13:47:40.208Z,97492.84
2024-02-02T13:50:13.547Z,97505.25
2024-02-02T13:52:40.515Z,97488.88
2024-02-02T13:55:07.641Z,97484.66
2024-02-02T13:57:34.406Z,97487.69
2024-02-02T14:00:01.299Z,97482.44
2024-02-02T14:02:28.245Z,97479.91
2024-02-02T14:04:58.355Z,97491.75
2024-02-02T14:07:25.058Z,97487.81
2024-02-02T14:10:02.676Z,97489.53
2024-02-02T14:12:29.447Z,97476.44
2024-02-02T14:14:56.461Z,97467.56
2024-02-02T14:17:24.043Z,97478.28
2024-02-02T14:20:03.046Z,97464.66
2024-02-02T14:22:30.148Z,97449.22
2024-02-02T14:24:57.412Z,97444.81
2024-02-02T14:27:38.872Z,97444.38
2024-02-02T14:30:09.805Z,97453.03
2024-02-02T14:32:36.920Z,97452.25
2024-02-02T14:35:05.853Z,97445.03
2024-02-02T14:37:33.703Z,97435.78
2024-02-02T14:40:01.641Z,97441.81
2024-02-02T14:42:31.536Z,97432.09
2024-02-02T14:45:00.032Z,97433.81
2024-02-02T14:47:27.875Z,97432.88
2024-02-02T14:49:54.762Z,97429.28
2024-02-02T14:52:21.836Z,97432.66
2024-02-02T14:54:48.522Z,97428.44
2024-02-02T14:57:18.504Z,97428.91
2024-02-02T14:59:51.215Z,97428.25
2024-02-02T15:02:18.202Z,97443.56
2024-02-02T15:04:45.723Z,97441.13
2024-02-02T15:07:12.997Z,97431.25
2024-02-02T15:09:42.439Z,97426.75
2024-02-02T15:12:09.804Z,97431.97
2024-02-02T15:14:36.695Z,97426.63
2024-02-02T15:17:03.791Z,97408.56
2024-02-02T15:19:30.579Z,97410.66
2024-02-02T15:21:57.338Z,97407.63
2024-02-02T15:24:24.299Z,97399.53
2024-02-02T15:26:51.117Z,97409.72
2024-02-02T15:29:17.767Z,97402.19
2024-02-02T15:31:44.402Z,97399.63
2024-02-02T15:34:11.190Z,97394.41
2024-02-02T15:36:38.020Z,97398.69
2024-02-02T15:39:19.535Z,97389.06
2024-02-02T15:41:54.052Z,97397.75
2024-02-02T15:44:21.001Z,97405.03
2024-02-02T15:46:47.658Z,97405.94
2024-02-02T15:49:14.496Z,97402.59
2024-02-02T15:51:41.480Z,97399.72
2024-02-02T15:54:08.753Z,97391.56
2024-02-02T15:56:35.438Z,97385.47
2024-02-02T15:59:02.788Z,97394.81
2024-02-02T16:01:29.594Z,97389.19
2024-02-02T16:03:56.524Z,97397.91
2024-02-02T16:06:23.414Z,97405.06
2024-02-02T16:08:50.228Z,97389.31
2024-02-02T16:11:17.491Z,97394.16
2024-02-02T16:13:47.090Z,97398.25
2024-02-02T16:16:13.791Z,97384.91
2024-02-02T16:18:40.581Z,97387.53
2024-02-02T16:21:07.340Z,97380.69
2024-02-02T16:23:34.010Z,97373.75
2024-02-02T16:26:00.835Z,97368.66
2024-02-02T16:28:27.571Z,97363.84
2024-02-02T16:30:54.371Z,97360.91
2024-02-02T16:33:23.569Z,97362.50
2024-02-02T16:35:50.507Z,97358.31
2024-02-02T16:38:17.212Z,97355.25
2024-02-02T16:40:43.959Z,97354.44
2024-02-02T16:43:10.757Z,97350.44
2024-02-02T16:45:37.490Z,97349.47
2024-02-02T16:48:04.666Z,97351.41
2024-02-02T16:50:31.647Z,97348.66
2024-02-02T16:52:58.489Z,97343.50
2024-02-02T16:55:25.252Z,97340.59
2024-02-02T16:57:52.949Z,97331.03
2024-02-02T17:00:20.354Z,97338.47
2024-02-02T17:02:47.171Z,97346.63
2024-02-02T17:05:13.845Z,97348.94
2024-02-02T17:07:40.837Z,97362.28
2024-02-02T17:10:07.914Z,97346.09
2024-02-02T17:12:35.679Z,97358.22
2024-02-02T17:15:04.316Z,97349.00
2024-02-02T17:17:31.234Z,97353.03
2024-02-02T17:19:58.151Z,97362.78
2024-02-02T17:22:24.899Z,97357.59
2024-02-02T17:24:51.708Z,97354.13
2024-02-02T17:27:18.524Z,97351.25
2024-02-02T17:29:45.290Z,97359.88
2024-02-02T17:32:15.473Z,97363.09
2024-02-02T17:34:50.325Z,97364.78
2024-02-02T17:37:17.147Z,97356.47
2024-02-02T17:39:44.018Z,97357.09
2024-02-02T17:42:10.928Z,97348.69
2024-02-02T17:44:37.601Z,97348.59
2024-02-02T17:47:04.510Z,97345.13
2024-02-02T17:49:41.088Z,97349.81
2024-02-02T17:52:13.007Z,97344.09
2024-02-02T17:54:39.956Z,97345.28
2024-02-02T17:57:07.470Z,97334.94
2024-02-02T17:59:34.346Z,97331.34
2024-02-02T18:02:02.449Z,97328.53
2024-02-02T18:04:29.701Z,97339.28
2024-02-02T18:06:56.534Z,97329.75
2024-02-02T18:09:23.398Z,97324.41
2024-02-02T18:11:50.228Z,97325.38
2024-02-02T18:14:20.695Z,97324.09
2024-02-02T18:16:47.744Z,97322.88
2024-02-02T18:19:14.522Z,97313.41
2024-02-02T18:21:41.435Z,97321.00
2024-02-02T18:24:09.671Z,97324.41
2024-02-02T18:26:38.063Z,97311.59
2024-02-02T18:29:05.102Z,97308.31
2024-02-02T18:31:31.865Z,97300.28
2024-02-02T18:33:58.633Z,97301.22
2024-02-02T18:36:25.422Z,97304.94
2024-02-02T18:38:52.247Z,97301.72
2024-02-02T18:41:18.892Z,97299.09
2024-02-02T18:43:45.551Z,97302.56
2024-02-02T18:46:12.193Z,97304.06
2024-02-02T18:48:40.536Z,97301.16
2024-02-02T18:51:15.478Z,97283.59
2024-02-02T18:53:42.127Z,97279.38
2024-02-02T18:56:13.296Z,97283.78
2024-02-02T18:58:46.043Z,97281.56
2024-02-02T19:01:33.769Z,97278.81
2024-02-02T19:04:00.929Z,97273.22
2024-02-02T19:06:27.790Z,97276.03
2024-02-02T19:08:54.942Z,97277.25
2024-02-02T19:11:22.463Z,97272.56
2024-02-02T19:13:49.188Z,97274.78
2024-02-02T19:16:23.621Z,97272.59
2024-02-02T19:18:51.434Z,97275.56
2024-02-02T19:21:26.619Z,97273.47
2024-02-02T19:23:54.280Z,97278.06
2024-02-02T19:26:21.559Z,97271.91
2024-02-02T19:28:48.226Z,97274.03
2024-02-02T19:31:22.628Z,97265.00
2024-02-02T19:33:50.448Z,97262.47
2024-02-02T19:36:28.866Z,97250.63
2024-02-02T19:38:59.476Z,97253.22
2024-02-02T19:41:29.632Z,97259.34
2024-02-02T19:43:57.164Z,97267.88
2024-02-02T19:46:27.542Z,97261.53
2024-02-02T19:48:55.996Z,97266.63
2024-02-02T19:51:24.669Z,97253.41
2024-02-02T19:53:51.812Z,97261.22
2024-02-02T19:56:21.891Z,97266.97
2024-02-02T19:58:50.592Z,97255.25
2024-02-02T20:01:19.805Z,97254.31
2024-02-02T20:03:48.442Z,97255.94
2024-02-02T20:06:17.521Z,97258.84
2024-02-02T20:08:45.945Z,97249.56
2024-02-02T20:11:17.002Z,97246.38
2024-02-02T20:13:44.069Z,97249.03
2024-02-02T20:16:15.065Z,97254.94
2024-02-02T20:18:42.170Z,97255.28
2024-02-02T20:21:08.951Z,97247.91
2024-02-02T20:23:37.680Z,97259.75
2024-02-02T20:26:05.267Z,97262.69
2024-02-02T20:28:32.282Z,97259.75
2024-02-02T20:30:59.042Z,97245.03
2024-02-02T20:33:26.115Z,97246.38
2024-02-02T20:35:52.721Z,97241.03
2024-02-02T20:38:19.416Z,97242.66
2024-02-02T20:40:46.079Z,97232.97
2024-02-02T20:43:12.789Z,97233.25
2024-02-02T20:45:39.509Z,97232.50
2024-02-02T20:48:06.534Z,97232.00
2024-02-02T20:50:33.284Z,97235.25
2024-02-02T20:52:59.985Z,97239.78
2024-02-02T20:55:26.675Z,97237.34
2024-02-02T20:57:53.428Z,97237.88
2024-02-02T21:00:20.333Z,97228.47
2024-02-02T21:02:47.069Z,97241.88
2024-02-02T21:05:13.968Z,97237.03
2024-02-02T21:07:40.814Z,97230.66
2024-02-02T21:10:07.769Z,97222.88
2024-02-02T21:12:34.931Z,97218.91
2024-02-02T21:15:01.873Z,97221.66
2024-02-02T21:17:29.442Z,97221.16
2024-02-02T21:19:58.116Z,97226.00
2024-02-02T21:22:25.596Z,97215.50
2024-02-02T21:24:52.406Z,97217.28
2024-02-02T21:27:19.190Z,97217.66
2024-02-02T21:29:45.885Z,97221.22
2024-02-02T21:32:12.542Z,97214.69
2024-02-02T21:34:39.343Z,97212.44
2024-02-02T21:37:06.148Z,97212.44
2024-02-02T21:39:32.955Z,97208.97
2024-02-02T21:41:59.633Z,97201.19
2024-02-02T21:44:26.262Z,97204.00
2024-02-02T21:46:52.949Z,97201.81
2024-02-02T21:49:19.691Z,97192.44
2024-02-02T21:51:46.500Z,97193.59
2024-02-02T21:54:13.545Z,97203.28
2024-02-02T21:56:43.457Z,97205.13
2024-02-02T21:59:10.429Z,97209.75
2024-02-02T22:01:39.011Z,97201.47
2024-02-02T22:04:06.133Z,97185.28
2024-02-02T22:06:33.377Z,97187.81
2024-02-02T22:09:03.205Z,97188.88
2024-02-02T22:11:29.905Z,97183.72
2024-02-02T22:13:56.592Z,97191.72
2024-02-02T22:16:23.220Z,97193.81
2024-02-02T22:18:50.264Z,97186.31
2024-02-02T22:21:25.852Z,97170.75
2024-02-02T22:23:52.659Z,97161.72
2024-02-02T22:26:20.582Z,97156.94
2024-02-02T22:28:48.319Z,97160.81
2024-02-02T22:31:21.877Z,97155.75
2024-02-02T22:33:48.939Z,97142.09
2024-02-02T22:36:25.709Z,97132.13
2024-02-02T22:38:55.650Z,97116.03
2024-02-02T22:41:33.106Z,97112.03
2024-02-02T22:44:01.692Z,97113.44
2024-02-02T22:46:32.157Z,97112.75
2024-02-02T22:48:59.052Z,97113.91
2024-02-02T22:51:25.899Z,97119.78
2024-02-02T22:53:52.677Z,97117.63
2024-02-02T22:56:19.305Z,97127.78
2024-02-02T22:58:46.030Z,97141.81
2024-02-02T23:01:13.136Z,97129.84
2024-02-02T23:03:39.937Z,97132.88
2024-02-02T23:06:07.286Z,97134.69
2024-02-02T23:08:34.007Z,97128.91
2024-02-02T23:11:00.664Z,97123.19
2024-02-02T23:13:27.332Z,97122.56
2024-02-02T23:15:55.051Z,97120.84
2024-02-02T23:18:22.969Z,97124.50
2024-02-02T23:20:49.834Z,97130.47
2024-02-02T23:23:20.168Z,97123.25
2024-02-02T23:25:46.970Z,97139.38
2024-02-02T23:28:13.917Z,97132.44
2024-02-02T23:30:41.200Z,97127.59
2024-02-02T23:33:08.089Z,97125.97
2024-02-02T23:35:34.841Z,97124.75
2024-02-02T23:38:01.665Z,97113.53
2024-02-02T23:40:28.862Z,97113.53
2024-02-02T23:42:55.575Z,97108.75
2024-02-02T23:45:22.784Z,97104.00
2024-02-02T23:47:49.527Z,97095.97
2024-02-02T23:50:16.415Z,97089.50
2024-02-02T23:52:43.116Z,97084.47
2024-02-02T23:55:10.696Z,97089.53
2024-02-02T23:57:38.141Z,97102.63
